K&a Sp — 3FVZ3 — position and weather

sailwx.info

Track history (hours):
 
Tides and Currents Weather Stations Pressure Air Temp Water Temp Dewpoint Dewpoint Depression Visibility Wind Speed Wind Dir Waves Ship Positions

K&a Sp

Last reported at 2015-Jul-04 07:33 UTC. Time now 2015-Jul-06 15:43 UTC.
Position N 34°02' E 130°51'.

Length 177 m; draft 7.8 m.

Type: Cargo ship. MMSI: 354085000.

Date/timePositionNaut miles runAvg speedWind from/ knotsBaromVisibWave heightAir tempDewpointWater temp
2015-Jul-04 07:33N 34°02' E 130°51'24112.0
2015-Jul-03 11:31N 32°44' E 126°18'1212.0
2015-Jul-03 10:32N 32°39' E 126°05'2512.5
2015-Jul-03 08:32N 32°28' E 125°39'12013.1
2015-Jul-02 23:19N 31°26' E 123°37'1412.3
2015-Jul-02 22:10N 31°18' E 123°23'812.0
2015-Jul-02 21:31N 31°14' E 123°15'1212.4
2015-Jul-02 20:33N 31°07' E 123°04'1312.8
2015-Jul-02 19:34N 30°59' E 122°52'1313.4
2015-Jul-02 18:33N 30°58' E 122°37'1413.7
2015-Jul-02 17:33N 31°02' E 122°21'1211.6
2015-Jul-02 16:33N 31°03' E 122°08'9 9.2
2015-Jul-02 15:33N 31°06' E 121°58'9 9.4
2015-Jul-02 14:33N 31°12' E 121°49'1010.1
2015-Jul-02 13:33N 31°20' E 121°41'1110.9
2015-Jul-02 12:34N 31°25' E 121°30'1110.7
2015-Jul-02 11:33N 31°32' E 121°21'1514.5
2015-Jul-02 10:33N 31°42' E 121°08'1313.3
2015-Jul-02 09:33N 31°49' E 120°55'1313.7
2015-Jul-02 08:33N 32°01' E 120°47'1111.2
2015-Jul-02 07:33N 32°03' E 120°34'1110.8
2015-Jul-02 06:30N 31°59' E 120°21'1111.4
2015-Jul-02 05:32N 31°56' E 120°08'1312.4
2015-Jul-02 04:30N 32°04' E 119°56'  
2015-Jun-29 02:28N 32°03' E 119°57'7 7.7
2015-Jun-29 01:33N 31°58' E 120°03'8 8.0
2015-Jun-29 00:33N 31°56' E 120°12'7 6.9
2015-Jun-28 23:33N 31°58' E 120°20'7 6.7
2015-Jun-28 22:33N 31°59' E 120°27'6 5.5
2015-Jun-28 21:30N 32°01' E 120°34'8 8.1
2015-Jun-28 20:33N 32°00' E 120°43'7 6.8
2015-Jun-28 19:33N 31°58' E 120°51'31 9.9
2015-Jun-28 16:26N 31°37' E 121°16'1011.8
2015-Jun-28 15:33N 31°30' E 121°26'9 8.6
2015-Jun-28 14:33N 31°24' E 121°33'1110.2
2015-Jun-28 13:31N 31°19' E 121°44'  
Track history (hours):
 
Tides and Currents Weather Stations Pressure Air Temp Water Temp Dewpoint Dewpoint Depression Visibility Wind Speed Wind Dir Waves Ship Positions

K&a Sp

Last reported at 2015-Jul-04 07:33 UTC. Time now 2015-Jul-06 15:43 UTC.
Position N 34°02' E 130°51'.

Length 177 m; draft 7.8 m.

Type: Cargo ship. MMSI: 354085000.

Date/timePositionNaut miles runAvg speedWind from/ knotsBaromVisibWave heightAir tempDewpointWater temp
2015-Jul-04 07:33N 34°02' E 130°51'24112.0
2015-Jul-03 11:31N 32°44' E 126°18'1212.0
2015-Jul-03 10:32N 32°39' E 126°05'2512.5
2015-Jul-03 08:32N 32°28' E 125°39'12013.1
2015-Jul-02 23:19N 31°26' E 123°37'1412.3
2015-Jul-02 22:10N 31°18' E 123°23'812.0
2015-Jul-02 21:31N 31°14' E 123°15'1212.4
2015-Jul-02 20:33N 31°07' E 123°04'1312.8
2015-Jul-02 19:34N 30°59' E 122°52'1313.4
2015-Jul-02 18:33N 30°58' E 122°37'1413.7
2015-Jul-02 17:33N 31°02' E 122°21'1211.6
2015-Jul-02 16:33N 31°03' E 122°08'9 9.2
2015-Jul-02 15:33N 31°06' E 121°58'9 9.4
2015-Jul-02 14:33N 31°12' E 121°49'1010.1
2015-Jul-02 13:33N 31°20' E 121°41'1110.9
2015-Jul-02 12:34N 31°25' E 121°30'1110.7
2015-Jul-02 11:33N 31°32' E 121°21'1514.5
2015-Jul-02 10:33N 31°42' E 121°08'1313.3
2015-Jul-02 09:33N 31°49' E 120°55'1313.7
2015-Jul-02 08:33N 32°01' E 120°47'1111.2
2015-Jul-02 07:33N 32°03' E 120°34'1110.8
2015-Jul-02 06:30N 31°59' E 120°21'1111.4
2015-Jul-02 05:32N 31°56' E 120°08'1312.4
2015-Jul-02 04:30N 32°04' E 119°56'  
2015-Jun-29 02:28N 32°03' E 119°57'7 7.7
2015-Jun-29 01:33N 31°58' E 120°03'8 8.0
2015-Jun-29 00:33N 31°56' E 120°12'7 6.9
2015-Jun-28 23:33N 31°58' E 120°20'7 6.7
2015-Jun-28 22:33N 31°59' E 120°27'6 5.5
2015-Jun-28 21:30N 32°01' E 120°34'8 8.1
2015-Jun-28 20:33N 32°00' E 120°43'7 6.8
2015-Jun-28 19:33N 31°58' E 120°51'31 9.9
2015-Jun-28 16:26N 31°37' E 121°16'1011.8
2015-Jun-28 15:33N 31°30' E 121°26'9 8.6
2015-Jun-28 14:33N 31°24' E 121°33'1110.2
2015-Jun-28 13:31N 31°19' E 121°44'  

Dump ship's entire track history